sensor_id;sensor_type;location;lat;lon;timestamp;P1;durP1;ratioP1;P2;durP2;ratioP2
76723;SDS011;65650;53.126;17.950;2023-02-08T00:01:53;44.80;;;18.80;;
76723;SDS011;65650;53.126;17.950;2023-02-08T00:04:20;42.10;;;17.80;;
76723;SDS011;65650;53.126;17.950;2023-02-08T00:06:46;44.80;;;18.80;;
76723;SDS011;65650;53.126;17.950;2023-02-08T00:09:13;43.20;;;18.20;;
76723;SDS011;65650;53.126;17.950;2023-02-08T00:11:39;41.50;;;18.00;;
76723;SDS011;65650;53.126;17.950;2023-02-08T00:14:06;40.70;;;17.40;;
76723;SDS011;65650;53.126;17.950;2023-02-08T00:16:34;43.80;;;16.30;;
76723;SDS011;65650;53.126;17.950;2023-02-08T00:19:00;36.00;;;15.70;;
76723;SDS011;65650;53.126;17.950;2023-02-08T00:21:28;40.50;;;17.10;;
76723;SDS011;65650;53.126;17.950;2023-02-08T00:23:54;35.70;;;14.90;;
76723;SDS011;65650;53.126;17.950;2023-02-08T00:26:21;40.00;;;18.80;;
76723;SDS011;65650;53.126;17.950;2023-02-08T00:28:48;44.30;;;18.50;;
76723;SDS011;65650;53.126;17.950;2023-02-08T00:31:16;42.40;;;16.80;;
76723;SDS011;65650;53.126;17.950;2023-02-08T00:33:42;40.40;;;17.40;;
76723;SDS011;65650;53.126;17.950;2023-02-08T00:36:09;42.20;;;17.50;;
76723;SDS011;65650;53.126;17.950;2023-02-08T00:38:36;38.30;;;16.70;;
76723;SDS011;65650;53.126;17.950;2023-02-08T00:41:02;40.90;;;17.00;;
76723;SDS011;65650;53.126;17.950;2023-02-08T00:43:29;38.00;;;17.50;;
76723;SDS011;65650;53.126;17.950;2023-02-08T00:45:56;35.60;;;15.60;;
76723;SDS011;65650;53.126;17.950;2023-02-08T00:48:25;39.80;;;15.40;;
76723;SDS011;65650;53.126;17.950;2023-02-08T00:50:56;36.00;;;15.20;;
76723;SDS011;65650;53.126;17.950;2023-02-08T00:53:23;35.10;;;15.10;;
76723;SDS011;65650;53.126;17.950;2023-02-08T00:55:50;40.40;;;16.30;;
76723;SDS011;65650;53.126;17.950;2023-02-08T00:58:16;38.60;;;16.90;;
76723;SDS011;65650;53.126;17.950;2023-02-08T01:00:43;39.90;;;16.10;;
76723;SDS011;65650;53.126;17.950;2023-02-08T01:03:09;38.10;;;15.30;;
76723;SDS011;65650;53.126;17.950;2023-02-08T01:05:37;36.70;;;15.20;;
76723;SDS011;65650;53.126;17.950;2023-02-08T01:08:03;33.30;;;14.70;;
76723;SDS011;65650;53.126;17.950;2023-02-08T01:10:31;35.50;;;15.40;;
76723;SDS011;65650;53.126;17.950;2023-02-08T01:12:57;32.90;;;13.90;;
76723;SDS011;65650;53.126;17.950;2023-02-08T01:15:24;33.30;;;15.60;;
76723;SDS011;65650;53.126;17.950;2023-02-08T01:17:54;32.20;;;12.90;;
76723;SDS011;65650;53.126;17.950;2023-02-08T01:20:20;34.00;;;14.60;;
76723;SDS011;65650;53.126;17.950;2023-02-08T01:22:47;35.20;;;14.70;;
76723;SDS011;65650;53.126;17.950;2023-02-08T01:25:13;30.60;;;14.50;;
76723;SDS011;65650;53.126;17.950;2023-02-08T01:27:40;27.90;;;12.10;;
76723;SDS011;65650;53.126;17.950;2023-02-08T01:30:06;32.20;;;13.00;;
76723;SDS011;65650;53.126;17.950;2023-02-08T01:32:34;28.90;;;12.90;;
76723;SDS011;65650;53.126;17.950;2023-02-08T01:35:02;33.70;;;13.80;;
76723;SDS011;65650;53.126;17.950;2023-02-08T01:37:29;32.10;;;13.00;;
76723;SDS011;65650;53.126;17.950;2023-02-08T01:39:55;31.40;;;14.00;;
76723;SDS011;65650;53.126;17.950;2023-02-08T01:42:23;24.90;;;11.00;;
76723;SDS011;65650;53.126;17.950;2023-02-08T01:47:48;33.30;;;13.90;;
76723;SDS011;65650;53.126;17.950;2023-02-08T01:50:16;32.50;;;13.60;;
76723;SDS011;65650;53.126;17.950;2023-02-08T01:52:44;32.80;;;13.80;;
76723;SDS011;65650;53.126;17.950;2023-02-08T01:55:13;28.60;;;12.50;;
76723;SDS011;65650;53.126;17.950;2023-02-08T01:57:40;28.30;;;11.50;;
76723;SDS011;65650;53.126;17.950;2023-02-08T02:00:13;24.80;;;11.50;;
76723;SDS011;65650;53.126;17.950;2023-02-08T02:02:42;25.20;;;10.50;;
76723;SDS011;65650;53.126;17.950;2023-02-08T02:05:11;27.20;;;11.20;;
76723;SDS011;65650;53.126;17.950;2023-02-08T02:07:37;22.10;;;9.60;;
76723;SDS011;65650;53.126;17.950;2023-02-08T02:10:09;25.40;;;10.30;;
76723;SDS011;65650;53.126;17.950;2023-02-08T02:12:37;30.30;;;10.30;;
76723;SDS011;65650;53.126;17.950;2023-02-08T02:15:05;23.80;;;10.40;;
76723;SDS011;65650;53.126;17.950;2023-02-08T02:17:31;20.90;;;8.90;;
76723;SDS011;65650;53.126;17.950;2023-02-08T02:20:09;25.80;;;11.20;;
76723;SDS011;65650;53.126;17.950;2023-02-08T02:33:24;25.60;;;10.90;;
76723;SDS011;65650;53.126;17.950;2023-02-08T02:41:39;27.70;;;12.10;;
76723;SDS011;65650;53.126;17.950;2023-02-08T02:44:51;28.70;;;10.60;;
76723;SDS011;65650;53.126;17.950;2023-02-08T02:47:25;22.80;;;9.80;;
76723;SDS011;65650;53.126;17.950;2023-02-08T02:49:59;22.60;;;10.00;;
76723;SDS011;65650;53.126;17.950;2023-02-08T02:52:31;22.70;;;9.90;;
76723;SDS011;65650;53.126;17.950;2023-02-08T02:55:02;22.70;;;9.40;;
76723;SDS011;65650;53.126;17.950;2023-02-08T02:57:30;25.20;;;9.50;;
76723;SDS011;65650;53.126;17.950;2023-02-08T02:59:57;22.00;;;8.90;;
76723;SDS011;65650;53.126;17.950;2023-02-08T03:02:25;22.50;;;9.60;;
76723;SDS011;65650;53.126;17.950;2023-02-08T03:04:53;19.10;;;8.00;;
76723;SDS011;65650;53.126;17.950;2023-02-08T03:17:53;18.70;;;7.90;;
76723;SDS011;65650;53.126;17.950;2023-02-08T03:20:26;18.40;;;7.10;;
76723;SDS011;65650;53.126;17.950;2023-02-08T03:22:58;18.60;;;8.30;;
76723;SDS011;65650;53.126;17.950;2023-02-08T03:25:27;16.60;;;6.80;;
76723;SDS011;65650;53.126;17.950;2023-02-08T03:28:17;13.00;;;5.60;;
76723;SDS011;65650;53.126;17.950;2023-02-08T03:35:49;15.20;;;6.60;;
76723;SDS011;65650;53.126;17.950;2023-02-08T03:38:20;16.00;;;6.70;;
76723;SDS011;65650;53.126;17.950;2023-02-08T03:40:48;10.50;;;5.50;;
76723;SDS011;65650;53.126;17.950;2023-02-08T03:43:19;14.30;;;6.50;;
76723;SDS011;65650;53.126;17.950;2023-02-08T03:45:50;14.30;;;5.80;;
76723;SDS011;65650;53.126;17.950;2023-02-08T03:48:18;13.20;;;6.20;;
76723;SDS011;65650;53.126;17.950;2023-02-08T03:50:47;13.30;;;5.80;;
76723;SDS011;65650;53.126;17.950;2023-02-08T03:53:15;12.30;;;5.60;;
76723;SDS011;65650;53.126;17.950;2023-02-08T03:55:44;12.80;;;5.70;;
76723;SDS011;65650;53.126;17.950;2023-02-08T03:58:12;9.60;;;4.10;;
76723;SDS011;65650;53.126;17.950;2023-02-08T04:00:41;13.20;;;5.80;;
76723;SDS011;65650;53.126;17.950;2023-02-08T04:03:11;15.60;;;5.90;;
76723;SDS011;65650;53.126;17.950;2023-02-08T04:05:39;11.90;;;5.40;;
76723;SDS011;65650;53.126;17.950;2023-02-08T04:08:06;14.40;;;6.60;;
76723;SDS011;65650;53.126;17.950;2023-02-08T04:10:33;11.90;;;5.60;;
76723;SDS011;65650;53.126;17.950;2023-02-08T04:13:00;11.80;;;5.90;;
76723;SDS011;65650;53.126;17.950;2023-02-08T04:15:26;10.00;;;4.60;;
76723;SDS011;65650;53.126;17.950;2023-02-08T04:17:53;13.20;;;5.60;;
76723;SDS011;65650;53.126;17.950;2023-02-08T04:20:19;12.50;;;5.80;;
76723;SDS011;65650;53.126;17.950;2023-02-08T04:22:46;12.20;;;4.90;;
76723;SDS011;65650;53.126;17.950;2023-02-08T04:25:13;10.30;;;5.00;;
76723;SDS011;65650;53.126;17.950;2023-02-08T04:27:39;12.20;;;4.80;;
76723;SDS011;65650;53.126;17.950;2023-02-08T04:30:06;21.50;;;8.30;;
76723;SDS011;65650;53.126;17.950;2023-02-08T04:32:33;17.30;;;6.40;;
76723;SDS011;65650;53.126;17.950;2023-02-08T04:34:59;16.10;;;6.40;;
76723;SDS011;65650;53.126;17.950;2023-02-08T04:37:26;14.80;;;6.00;;
76723;SDS011;65650;53.126;17.950;2023-02-08T04:39:53;14.40;;;5.80;;
76723;SDS011;65650;53.126;17.950;2023-02-08T04:42:19;15.60;;;6.70;;
76723;SDS011;65650;53.126;17.950;2023-02-08T04:44:46;11.60;;;4.60;;
76723;SDS011;65650;53.126;17.950;2023-02-08T04:47:13;14.20;;;5.80;;
76723;SDS011;65650;53.126;17.950;2023-02-08T04:49:39;16.60;;;7.20;;
76723;SDS011;65650;53.126;17.950;2023-02-08T04:52:06;19.10;;;6.80;;
76723;SDS011;65650;53.126;17.950;2023-02-08T04:54:32;19.20;;;7.80;;
76723;SDS011;65650;53.126;17.950;2023-02-08T04:56:59;16.00;;;7.20;;
76723;SDS011;65650;53.126;17.950;2023-02-08T04:59:25;19.10;;;6.70;;
76723;SDS011;65650;53.126;17.950;2023-02-08T05:01:52;17.10;;;7.50;;
76723;SDS011;65650;53.126;17.950;2023-02-08T05:04:18;16.80;;;6.50;;
76723;SDS011;65650;53.126;17.950;2023-02-08T05:06:45;18.90;;;7.90;;
76723;SDS011;65650;53.126;17.950;2023-02-08T05:09:11;21.50;;;9.70;;
76723;SDS011;65650;53.126;17.950;2023-02-08T05:11:38;22.10;;;9.60;;
76723;SDS011;65650;53.126;17.950;2023-02-08T05:14:04;19.70;;;8.30;;
76723;SDS011;65650;53.126;17.950;2023-02-08T05:16:31;17.60;;;7.40;;
76723;SDS011;65650;53.126;17.950;2023-02-08T05:18:57;17.00;;;8.40;;
76723;SDS011;65650;53.126;17.950;2023-02-08T05:21:24;20.00;;;8.80;;
76723;SDS011;65650;53.126;17.950;2023-02-08T05:23:50;16.60;;;7.10;;
76723;SDS011;65650;53.126;17.950;2023-02-08T05:26:17;17.70;;;8.70;;
76723;SDS011;65650;53.126;17.950;2023-02-08T05:28:44;20.20;;;8.80;;
76723;SDS011;65650;53.126;17.950;2023-02-08T05:31:12;21.50;;;8.90;;
76723;SDS011;65650;53.126;17.950;2023-02-08T05:33:38;21.30;;;10.00;;
76723;SDS011;65650;53.126;17.950;2023-02-08T05:36:05;20.40;;;9.10;;
76723;SDS011;65650;53.126;17.950;2023-02-08T05:38:31;21.00;;;8.80;;
76723;SDS011;65650;53.126;17.950;2023-02-08T05:40:58;21.50;;;9.40;;
76723;SDS011;65650;53.126;17.950;2023-02-08T05:43:24;23.30;;;9.70;;
76723;SDS011;65650;53.126;17.950;2023-02-08T05:45:51;26.20;;;10.70;;
76723;SDS011;65650;53.126;17.950;2023-02-08T05:48:17;25.20;;;9.30;;
76723;SDS011;65650;53.126;17.950;2023-02-08T05:50:44;17.10;;;7.40;;
76723;SDS011;65650;53.126;17.950;2023-02-08T05:53:14;20.30;;;8.20;;
76723;SDS011;65650;53.126;17.950;2023-02-08T05:55:43;27.20;;;9.90;;
76723;SDS011;65650;53.126;17.950;2023-02-08T05:58:09;22.90;;;10.20;;
76723;SDS011;65650;53.126;17.950;2023-02-08T06:00:35;23.80;;;9.30;;
76723;SDS011;65650;53.126;17.950;2023-02-08T06:03:02;23.00;;;9.00;;
76723;SDS011;65650;53.126;17.950;2023-02-08T06:05:28;24.60;;;10.40;;
76723;SDS011;65650;53.126;17.950;2023-02-08T06:07:55;23.80;;;9.70;;
76723;SDS011;65650;53.126;17.950;2023-02-08T06:10:22;23.60;;;10.20;;
76723;SDS011;65650;53.126;17.950;2023-02-08T06:12:49;23.70;;;9.80;;
76723;SDS011;65650;53.126;17.950;2023-02-08T06:15:15;23.40;;;9.90;;
76723;SDS011;65650;53.126;17.950;2023-02-08T06:17:42;25.20;;;9.90;;
76723;SDS011;65650;53.126;17.950;2023-02-08T06:20:08;23.60;;;9.20;;
76723;SDS011;65650;53.126;17.950;2023-02-08T06:22:35;25.80;;;11.60;;
76723;SDS011;65650;53.126;17.950;2023-02-08T06:25:01;28.00;;;12.10;;
76723;SDS011;65650;53.126;17.950;2023-02-08T06:27:28;21.90;;;9.10;;
76723;SDS011;65650;53.126;17.950;2023-02-08T06:29:55;26.50;;;9.70;;
76723;SDS011;65650;53.126;17.950;2023-02-08T06:32:21;27.50;;;10.90;;
76723;SDS011;65650;53.126;17.950;2023-02-08T06:34:47;30.70;;;12.80;;
76723;SDS011;65650;53.126;17.950;2023-02-08T06:37:16;32.00;;;12.30;;
76723;SDS011;65650;53.126;17.950;2023-02-08T06:39:42;26.30;;;11.90;;
76723;SDS011;65650;53.126;17.950;2023-02-08T06:42:09;29.10;;;11.50;;
76723;SDS011;65650;53.126;17.950;2023-02-08T06:44:36;21.70;;;8.60;;
76723;SDS011;65650;53.126;17.950;2023-02-08T06:47:03;31.30;;;11.40;;
76723;SDS011;65650;53.126;17.950;2023-02-08T06:49:30;27.10;;;10.90;;
76723;SDS011;65650;53.126;17.950;2023-02-08T06:51:57;22.70;;;10.60;;
76723;SDS011;65650;53.126;17.950;2023-02-08T06:54:23;27.60;;;11.10;;
76723;SDS011;65650;53.126;17.950;2023-02-08T06:56:49;21.40;;;8.90;;
76723;SDS011;65650;53.126;17.950;2023-02-08T06:59:16;20.50;;;8.90;;
76723;SDS011;65650;53.126;17.950;2023-02-08T07:01:42;30.50;;;9.90;;
76723;SDS011;65650;53.126;17.950;2023-02-08T07:04:09;30.20;;;11.20;;
76723;SDS011;65650;53.126;17.950;2023-02-08T07:06:35;26.20;;;10.50;;
76723;SDS011;65650;53.126;17.950;2023-02-08T07:09:02;27.00;;;10.70;;
76723;SDS011;65650;53.126;17.950;2023-02-08T07:11:29;25.60;;;10.60;;
76723;SDS011;65650;53.126;17.950;2023-02-08T07:13:55;26.40;;;10.80;;
76723;SDS011;65650;53.126;17.950;2023-02-08T07:16:22;25.50;;;10.80;;
76723;SDS011;65650;53.126;17.950;2023-02-08T07:18:48;25.20;;;10.20;;
76723;SDS011;65650;53.126;17.950;2023-02-08T07:21:15;26.40;;;11.20;;
76723;SDS011;65650;53.126;17.950;2023-02-08T07:23:41;23.70;;;9.50;;
76723;SDS011;65650;53.126;17.950;2023-02-08T07:26:09;25.50;;;10.20;;
76723;SDS011;65650;53.126;17.950;2023-02-08T07:28:37;30.20;;;11.80;;
76723;SDS011;65650;53.126;17.950;2023-02-08T07:31:07;27.00;;;11.30;;
76723;SDS011;65650;53.126;17.950;2023-02-08T07:33:34;27.20;;;10.50;;
76723;SDS011;65650;53.126;17.950;2023-02-08T07:36:01;27.70;;;12.10;;
76723;SDS011;65650;53.126;17.950;2023-02-08T07:38:30;26.80;;;11.40;;
76723;SDS011;65650;53.126;17.950;2023-02-08T07:40:59;22.90;;;9.20;;
76723;SDS011;65650;53.126;17.950;2023-02-08T07:43:26;30.70;;;11.30;;
76723;SDS011;65650;53.126;17.950;2023-02-08T07:45:53;28.30;;;11.70;;
76723;SDS011;65650;53.126;17.950;2023-02-08T07:48:20;26.70;;;11.20;;
76723;SDS011;65650;53.126;17.950;2023-02-08T07:50:46;25.50;;;10.40;;
76723;SDS011;65650;53.126;17.950;2023-02-08T07:53:14;30.60;;;12.50;;
76723;SDS011;65650;53.126;17.950;2023-02-08T07:55:43;24.80;;;10.00;;
76723;SDS011;65650;53.126;17.950;2023-02-08T07:58:10;30.60;;;12.40;;
76723;SDS011;65650;53.126;17.950;2023-02-08T08:00:36;33.20;;;13.00;;
76723;SDS011;65650;53.126;17.950;2023-02-08T08:03:02;33.00;;;13.10;;
76723;SDS011;65650;53.126;17.950;2023-02-08T08:05:29;29.80;;;12.00;;
76723;SDS011;65650;53.126;17.950;2023-02-08T08:07:55;34.70;;;11.20;;
76723;SDS011;65650;53.126;17.950;2023-02-08T08:10:22;32.40;;;13.40;;
76723;SDS011;65650;53.126;17.950;2023-02-08T08:12:48;30.00;;;12.60;;
76723;SDS011;65650;53.126;17.950;2023-02-08T08:15:15;34.90;;;12.00;;
76723;SDS011;65650;53.126;17.950;2023-02-08T08:17:41;31.80;;;12.90;;
76723;SDS011;65650;53.126;17.950;2023-02-08T08:20:09;36.30;;;12.80;;
76723;SDS011;65650;53.126;17.950;2023-02-08T08:22:36;35.20;;;13.60;;
76723;SDS011;65650;53.126;17.950;2023-02-08T08:25:02;36.60;;;13.40;;
76723;SDS011;65650;53.126;17.950;2023-02-08T08:27:29;36.80;;;13.40;;
76723;SDS011;65650;53.126;17.950;2023-02-08T08:29:55;31.10;;;12.10;;
76723;SDS011;65650;53.126;17.950;2023-02-08T08:32:22;35.10;;;12.50;;
76723;SDS011;65650;53.126;17.950;2023-02-08T08:34:48;31.60;;;12.10;;
76723;SDS011;65650;53.126;17.950;2023-02-08T08:37:15;40.50;;;14.60;;
76723;SDS011;65650;53.126;17.950;2023-02-08T08:39:41;35.90;;;13.50;;
76723;SDS011;65650;53.126;17.950;2023-02-08T08:42:08;35.50;;;13.70;;
76723;SDS011;65650;53.126;17.950;2023-02-08T08:44:34;34.20;;;13.30;;
76723;SDS011;65650;53.126;17.950;2023-02-08T08:47:01;40.50;;;15.70;;
76723;SDS011;65650;53.126;17.950;2023-02-08T08:49:28;35.60;;;13.60;;
76723;SDS011;65650;53.126;17.950;2023-02-08T08:51:54;41.90;;;14.80;;
76723;SDS011;65650;53.126;17.950;2023-02-08T08:54:21;42.40;;;14.10;;
76723;SDS011;65650;53.126;17.950;2023-02-08T08:56:47;39.70;;;15.00;;
76723;SDS011;65650;53.126;17.950;2023-02-08T08:59:14;41.80;;;15.80;;
76723;SDS011;65650;53.126;17.950;2023-02-08T09:01:40;33.70;;;13.90;;
76723;SDS011;65650;53.126;17.950;2023-02-08T09:04:08;41.40;;;15.60;;
76723;SDS011;65650;53.126;17.950;2023-02-08T09:06:35;42.10;;;16.50;;
76723;SDS011;65650;53.126;17.950;2023-02-08T09:09:01;33.60;;;12.80;;
76723;SDS011;65650;53.126;17.950;2023-02-08T09:11:28;39.80;;;15.00;;
76723;SDS011;65650;53.126;17.950;2023-02-08T09:13:54;40.30;;;15.30;;
76723;SDS011;65650;53.126;17.950;2023-02-08T09:16:22;40.20;;;15.50;;
76723;SDS011;65650;53.126;17.950;2023-02-08T09:18:49;44.30;;;15.80;;
76723;SDS011;65650;53.126;17.950;2023-02-08T09:21:19;39.20;;;16.70;;
76723;SDS011;65650;53.126;17.950;2023-02-08T09:23:46;47.80;;;14.80;;
76723;SDS011;65650;53.126;17.950;2023-02-08T09:26:14;43.90;;;17.30;;
76723;SDS011;65650;53.126;17.950;2023-02-08T09:28:41;38.10;;;15.60;;
76723;SDS011;65650;53.126;17.950;2023-02-08T09:31:12;47.70;;;17.50;;
76723;SDS011;65650;53.126;17.950;2023-02-08T09:33:40;41.60;;;16.50;;
76723;SDS011;65650;53.126;17.950;2023-02-08T09:36:06;37.40;;;15.50;;
76723;SDS011;65650;53.126;17.950;2023-02-08T09:38:33;42.60;;;15.70;;
76723;SDS011;65650;53.126;17.950;2023-02-08T09:41:08;41.20;;;15.70;;
76723;SDS011;65650;53.126;17.950;2023-02-08T09:43:42;38.30;;;14.30;;
76723;SDS011;65650;53.126;17.950;2023-02-08T09:46:14;38.70;;;15.00;;
76723;SDS011;65650;53.126;17.950;2023-02-08T09:48:41;37.80;;;15.50;;
76723;SDS011;65650;53.126;17.950;2023-02-08T09:53:35;35.70;;;12.50;;
76723;SDS011;65650;53.126;17.950;2023-02-08T09:56:05;42.00;;;16.50;;
76723;SDS011;65650;53.126;17.950;2023-02-08T09:58:36;34.20;;;13.00;;
76723;SDS011;65650;53.126;17.950;2023-02-08T10:01:05;37.80;;;15.40;;
76723;SDS011;65650;53.126;17.950;2023-02-08T10:03:38;36.90;;;14.30;;
76723;SDS011;65650;53.126;17.950;2023-02-08T10:06:09;45.10;;;16.90;;
76723;SDS011;65650;53.126;17.950;2023-02-08T10:08:36;39.50;;;16.30;;
76723;SDS011;65650;53.126;17.950;2023-02-08T10:16:13;36.10;;;13.00;;
76723;SDS011;65650;53.126;17.950;2023-02-08T10:21:17;40.00;;;15.40;;
76723;SDS011;65650;53.126;17.950;2023-02-08T10:23:58;39.40;;;15.10;;
76723;SDS011;65650;53.126;17.950;2023-02-08T10:29:01;39.30;;;15.60;;
76723;SDS011;65650;53.126;17.950;2023-02-08T10:34:03;36.70;;;14.50;;
76723;SDS011;65650;53.126;17.950;2023-02-08T10:36:36;39.30;;;15.80;;
76723;SDS011;65650;53.126;17.950;2023-02-08T10:39:14;36.70;;;14.30;;
76723;SDS011;65650;53.126;17.950;2023-02-08T10:41:41;40.20;;;16.20;;
76723;SDS011;65650;53.126;17.950;2023-02-08T10:44:23;35.70;;;13.50;;
76723;SDS011;65650;53.126;17.950;2023-02-08T10:46:55;34.50;;;12.50;;
76723;SDS011;65650;53.126;17.950;2023-02-08T10:52:02;42.40;;;14.60;;
76723;SDS011;65650;53.126;17.950;2023-02-08T10:54:29;45.60;;;17.80;;
76723;SDS011;65650;53.126;17.950;2023-02-08T10:57:00;39.00;;;14.80;;
76723;SDS011;65650;53.126;17.950;2023-02-08T10:59:30;44.70;;;16.50;;
76723;SDS011;65650;53.126;17.950;2023-02-08T11:02:00;40.60;;;15.60;;
76723;SDS011;65650;53.126;17.950;2023-02-08T11:04:27;30.30;;;13.10;;
76723;SDS011;65650;53.126;17.950;2023-02-08T11:06:54;33.10;;;14.30;;
76723;SDS011;65650;53.126;17.950;2023-02-08T11:09:22;31.30;;;11.50;;
76723;SDS011;65650;53.126;17.950;2023-02-08T11:11:49;33.80;;;12.90;;
76723;SDS011;65650;53.126;17.950;2023-02-08T11:16:51;27.90;;;10.50;;
76723;SDS011;65650;53.126;17.950;2023-02-08T11:19:38;32.80;;;12.50;;
76723;SDS011;65650;53.126;17.950;2023-02-08T11:22:15;33.10;;;12.60;;
76723;SDS011;65650;53.126;17.950;2023-02-08T11:24:42;27.60;;;8.90;;
76723;SDS011;65650;53.126;17.950;2023-02-08T11:27:17;29.50;;;11.50;;
76723;SDS011;65650;53.126;17.950;2023-02-08T11:29:43;30.80;;;12.50;;
76723;SDS011;65650;53.126;17.950;2023-02-08T11:32:17;31.50;;;12.90;;
76723;SDS011;65650;53.126;17.950;2023-02-08T11:34:43;27.30;;;10.20;;
76723;SDS011;65650;53.126;17.950;2023-02-08T11:37:17;32.20;;;12.80;;
76723;SDS011;65650;53.126;17.950;2023-02-08T11:39:48;34.10;;;13.10;;
76723;SDS011;65650;53.126;17.950;2023-02-08T11:42:18;34.70;;;12.90;;
76723;SDS011;65650;53.126;17.950;2023-02-08T11:44:45;28.20;;;12.30;;
76723;SDS011;65650;53.126;17.950;2023-02-08T11:47:14;29.60;;;12.00;;
76723;SDS011;65650;53.126;17.950;2023-02-08T11:49:43;38.10;;;14.80;;
76723;SDS011;65650;53.126;17.950;2023-02-08T11:52:20;28.40;;;11.40;;
76723;SDS011;65650;53.126;17.950;2023-02-08T11:54:47;26.70;;;11.60;;
76723;SDS011;65650;53.126;17.950;2023-02-08T11:59:40;32.00;;;12.60;;
76723;SDS011;65650;53.126;17.950;2023-02-08T12:04:52;28.80;;;11.50;;
76723;SDS011;65650;53.126;17.950;2023-02-08T12:10:04;35.20;;;14.20;;
76723;SDS011;65650;53.126;17.950;2023-02-08T12:15:04;32.70;;;13.20;;
76723;SDS011;65650;53.126;17.950;2023-02-08T12:17:42;33.20;;;13.40;;
76723;SDS011;65650;53.126;17.950;2023-02-08T12:20:23;33.40;;;13.60;;
76723;SDS011;65650;53.126;17.950;2023-02-08T12:23:00;33.30;;;14.80;;
76723;SDS011;65650;53.126;17.950;2023-02-08T12:25:31;27.60;;;11.90;;
76723;SDS011;65650;53.126;17.950;2023-02-08T12:28:20;33.90;;;13.80;;
76723;SDS011;65650;53.126;17.950;2023-02-08T12:36:19;35.00;;;15.80;;
76723;SDS011;65650;53.126;17.950;2023-02-08T12:54:49;31.90;;;13.90;;
76723;SDS011;65650;53.126;17.950;2023-02-08T12:57:20;38.10;;;15.90;;
76723;SDS011;65650;53.126;17.950;2023-02-08T13:02:55;38.70;;;17.30;;
76723;SDS011;65650;53.126;17.950;2023-02-08T13:05:25;46.20;;;19.10;;
76723;SDS011;65650;53.126;17.950;2023-02-08T13:10:43;51.60;;;21.80;;
76723;SDS011;65650;53.126;17.950;2023-02-08T13:13:16;44.40;;;20.30;;
76723;SDS011;65650;53.126;17.950;2023-02-08T13:15:59;37.90;;;18.40;;
76723;SDS011;65650;53.126;17.950;2023-02-08T13:18:30;38.60;;;17.40;;
76723;SDS011;65650;53.126;17.950;2023-02-08T13:21:00;37.00;;;17.80;;
76723;SDS011;65650;53.126;17.950;2023-02-08T13:23:29;38.10;;;17.70;;
76723;SDS011;65650;53.126;17.950;2023-02-08T13:26:02;35.10;;;16.60;;
76723;SDS011;65650;53.126;17.950;2023-02-08T13:28:31;35.40;;;16.70;;
76723;SDS011;65650;53.126;17.950;2023-02-08T13:31:02;34.80;;;16.90;;
76723;SDS011;65650;53.126;17.950;2023-02-08T13:35:59;34.30;;;15.90;;
76723;SDS011;65650;53.126;17.950;2023-02-08T13:43:42;66.70;;;27.50;;
76723;SDS011;65650;53.126;17.950;2023-02-08T13:46:12;41.40;;;20.60;;
76723;SDS011;65650;53.126;17.950;2023-02-08T13:48:39;39.30;;;20.40;;
76723;SDS011;65650;53.126;17.950;2023-02-08T13:51:08;101.00;;;35.80;;
76723;SDS011;65650;53.126;17.950;2023-02-08T13:56:41;45.30;;;20.70;;
76723;SDS011;65650;53.126;17.950;2023-02-08T13:59:30;61.50;;;24.20;;
76723;SDS011;65650;53.126;17.950;2023-02-08T14:04:39;53.30;;;25.70;;
76723;SDS011;65650;53.126;17.950;2023-02-08T14:12:46;50.40;;;20.60;;
76723;SDS011;65650;53.126;17.950;2023-02-08T14:17:45;38.40;;;18.30;;
76723;SDS011;65650;53.126;17.950;2023-02-08T14:20:56;47.10;;;21.70;;
76723;SDS011;65650;53.126;17.950;2023-02-08T14:23:17;87.10;;;36.50;;
76723;SDS011;65650;53.126;17.950;2023-02-08T14:25:45;61.70;;;26.40;;
76723;SDS011;65650;53.126;17.950;2023-02-08T14:31:00;36.60;;;17.60;;
76723;SDS011;65650;53.126;17.950;2023-02-08T14:33:32;34.90;;;17.80;;
76723;SDS011;65650;53.126;17.950;2023-02-08T14:36:02;38.40;;;18.00;;
76723;SDS011;65650;53.126;17.950;2023-02-08T14:49:40;31.10;;;15.80;;
76723;SDS011;65650;53.126;17.950;2023-02-08T14:52:14;31.40;;;15.90;;
76723;SDS011;65650;53.126;17.950;2023-02-08T14:54:46;34.70;;;15.30;;
76723;SDS011;65650;53.126;17.950;2023-02-08T14:57:19;35.80;;;16.80;;
76723;SDS011;65650;53.126;17.950;2023-02-08T14:59:48;39.80;;;18.40;;
76723;SDS011;65650;53.126;17.950;2023-02-08T15:02:18;38.60;;;17.10;;
76723;SDS011;65650;53.126;17.950;2023-02-08T15:04:45;43.00;;;19.50;;
76723;SDS011;65650;53.126;17.950;2023-02-08T15:09:44;38.20;;;18.40;;
76723;SDS011;65650;53.126;17.950;2023-02-08T15:12:16;37.20;;;16.50;;
76723;SDS011;65650;53.126;17.950;2023-02-08T15:14:46;35.70;;;16.60;;
76723;SDS011;65650;53.126;17.950;2023-02-08T15:17:17;42.70;;;18.50;;
76723;SDS011;65650;53.126;17.950;2023-02-08T15:19:44;37.10;;;17.60;;
76723;SDS011;65650;53.126;17.950;2023-02-08T15:22:15;38.20;;;16.70;;
76723;SDS011;65650;53.126;17.950;2023-02-08T15:24:49;34.70;;;15.80;;
76723;SDS011;65650;53.126;17.950;2023-02-08T15:27:25;35.90;;;15.50;;
76723;SDS011;65650;53.126;17.950;2023-02-08T15:29:52;34.30;;;15.50;;
76723;SDS011;65650;53.126;17.950;2023-02-08T15:32:20;36.60;;;14.60;;
76723;SDS011;65650;53.126;17.950;2023-02-08T15:34:49;31.90;;;14.10;;
76723;SDS011;65650;53.126;17.950;2023-02-08T15:37:17;30.90;;;14.40;;
76723;SDS011;65650;53.126;17.950;2023-02-08T15:39:44;31.90;;;14.70;;
76723;SDS011;65650;53.126;17.950;2023-02-08T15:42:17;36.90;;;15.40;;
76723;SDS011;65650;53.126;17.950;2023-02-08T15:44:45;37.70;;;16.40;;
76723;SDS011;65650;53.126;17.950;2023-02-08T15:47:15;40.70;;;16.30;;
76723;SDS011;65650;53.126;17.950;2023-02-08T15:49:43;44.80;;;19.60;;
76723;SDS011;65650;53.126;17.950;2023-02-08T15:52:14;40.40;;;17.90;;
76723;SDS011;65650;53.126;17.950;2023-02-08T15:54:42;39.30;;;16.30;;
76723;SDS011;65650;53.126;17.950;2023-02-08T15:59:54;38.90;;;16.20;;
76723;SDS011;65650;53.126;17.950;2023-02-08T16:02:26;45.00;;;18.00;;
76723;SDS011;65650;53.126;17.950;2023-02-08T16:04:54;44.30;;;17.30;;
76723;SDS011;65650;53.126;17.950;2023-02-08T16:07:31;40.00;;;16.60;;
76723;SDS011;65650;53.126;17.950;2023-02-08T16:09:58;41.80;;;16.30;;
76723;SDS011;65650;53.126;17.950;2023-02-08T16:12:26;38.60;;;16.20;;
76723;SDS011;65650;53.126;17.950;2023-02-08T16:14:53;41.10;;;15.90;;
76723;SDS011;65650;53.126;17.950;2023-02-08T16:20:32;46.10;;;18.30;;
76723;SDS011;65650;53.126;17.950;2023-02-08T16:23:00;51.80;;;19.60;;
76723;SDS011;65650;53.126;17.950;2023-02-08T16:28:02;65.40;;;24.20;;
76723;SDS011;65650;53.126;17.950;2023-02-08T16:30:31;66.20;;;23.60;;
76723;SDS011;65650;53.126;17.950;2023-02-08T16:33:03;66.90;;;23.40;;
76723;SDS011;65650;53.126;17.950;2023-02-08T16:35:36;75.90;;;26.40;;
76723;SDS011;65650;53.126;17.950;2023-02-08T16:38:03;76.90;;;28.10;;
76723;SDS011;65650;53.126;17.950;2023-02-08T16:40:47;81.80;;;26.00;;